Portada
METAR-TAF:

METAR-TAF

Aeroports :

Port Moresby, Papua Nova Guinea

latitud: 09-26S, longitud: 147-13E, altitud: 38 m

Observació

L'informe es va fer fa 40 minuts, a les 08:00 UTC
Vent 8 kt del Sud/Sud-Est
Temperatura 27°C
Humitat 84%
Pressió 1010 hPa
Visibilitat 10 km o més
Escasses núvols a una alçada de 4000 ft
Núvols disperses a una alçada de 5000 ft

METAR: AYPY 120800Z 15008KT 9999 FEW040 SCT050 27/24 Q1010

Hora: 18:40 (08:40 UTC)

Pronòstic

L'informe es va fer fa 4 hores i 39 minuts, a les 04:01 UTC
Pronòstic vàlid del 12 a les 06 UTC al 13 a les 06 UTC
Vent 10 kt del Sud
Visibilitat 10 km o més
Núvols disperses a una alçada de 2000 ft
Núvols disperses a una alçada de 4000 ft
xàfecs de pluja
A partir de les 12 a les 0900 UTC
Vent 8 kt del Sud
Visibilitat 10 km o més
Cel ennuvolat a una alçada de 4000 ft

TAF: AYPY 120401Z 1206/1306 17010KT 9999 -SHRA SCT020 SCT040 FM120900 17008KT 9999 BKN040

Observacions i pronòstics meteorològics de més de 4000 aeroports (METAR i TAF).

Les estacions disponibles són els punts grocs i vermells al mapa.

Posi el ratolí al punt desitjat per veure el nom de l'estació.

Feu clic per veure les observacions i els pronòstics meteorològics.

Per canviar el mapa: feu clic els botons verds amb una creu de color negre per apropar; al botó verd amb un guió per allunyar la imatge; o en les fletxes verdes per a mapes adjacents.


METAR-TAF: